sensor_id;sensor_type;location;lat;lon;timestamp;P1;durP1;ratioP1;P2;durP2;ratioP2
55597;SDS011;41463;53.186;5.552;2022-12-18T00:01:20;78.57;;;33.55;;
55597;SDS011;41463;53.186;5.552;2022-12-18T00:03:48;80.40;;;34.03;;
55597;SDS011;41463;53.186;5.552;2022-12-18T00:06:15;84.05;;;36.58;;
55597;SDS011;41463;53.186;5.552;2022-12-18T00:08:41;83.10;;;35.80;;
55597;SDS011;41463;53.186;5.552;2022-12-18T00:11:12;84.40;;;35.70;;
55597;SDS011;41463;53.186;5.552;2022-12-18T00:13:43;78.88;;;35.53;;
55597;SDS011;41463;53.186;5.552;2022-12-18T00:16:11;79.53;;;34.47;;
55597;SDS011;41463;53.186;5.552;2022-12-18T00:18:39;80.80;;;34.38;;
55597;SDS011;41463;53.186;5.552;2022-12-18T00:21:06;78.15;;;33.80;;
55597;SDS011;41463;53.186;5.552;2022-12-18T00:23:37;78.35;;;35.17;;
55597;SDS011;41463;53.186;5.552;2022-12-18T00:26:05;72.90;;;33.55;;
55597;SDS011;41463;53.186;5.552;2022-12-18T00:28:33;82.00;;;33.38;;
55597;SDS011;41463;53.186;5.552;2022-12-18T00:31:02;74.07;;;33.53;;
55597;SDS011;41463;53.186;5.552;2022-12-18T00:33:29;75.93;;;34.28;;
55597;SDS011;41463;53.186;5.552;2022-12-18T00:36:00;76.65;;;35.08;;
55597;SDS011;41463;53.186;5.552;2022-12-18T00:38:27;75.50;;;32.80;;
55597;SDS011;41463;53.186;5.552;2022-12-18T00:40:52;73.40;;;33.75;;
55597;SDS011;41463;53.186;5.552;2022-12-18T00:43:18;78.35;;;36.00;;
55597;SDS011;41463;53.186;5.552;2022-12-18T00:45:44;72.93;;;34.60;;
55597;SDS011;41463;53.186;5.552;2022-12-18T00:48:16;80.80;;;36.67;;
55597;SDS011;41463;53.186;5.552;2022-12-18T00:50:42;76.47;;;34.70;;
55597;SDS011;41463;53.186;5.552;2022-12-18T00:53:08;68.90;;;33.65;;
55597;SDS011;41463;53.186;5.552;2022-12-18T00:55:37;69.25;;;33.63;;
55597;SDS011;41463;53.186;5.552;2022-12-18T00:58:07;78.82;;;34.05;;
55597;SDS011;41463;53.186;5.552;2022-12-18T01:00:33;77.25;;;37.13;;
55597;SDS011;41463;53.186;5.552;2022-12-18T01:03:00;70.25;;;35.17;;
55597;SDS011;41463;53.186;5.552;2022-12-18T01:05:26;81.45;;;34.10;;
55597;SDS011;41463;53.186;5.552;2022-12-18T01:07:52;73.10;;;34.78;;
55597;SDS011;41463;53.186;5.552;2022-12-18T01:10:18;79.50;;;35.95;;
55597;SDS011;41463;53.186;5.552;2022-12-18T01:12:44;73.82;;;34.08;;
55597;SDS011;41463;53.186;5.552;2022-12-18T01:15:13;79.13;;;34.20;;
55597;SDS011;41463;53.186;5.552;2022-12-18T01:17:40;79.97;;;34.03;;
55597;SDS011;41463;53.186;5.552;2022-12-18T01:20:06;86.05;;;35.65;;
55597;SDS011;41463;53.186;5.552;2022-12-18T01:22:33;75.85;;;34.13;;
55597;SDS011;41463;53.186;5.552;2022-12-18T01:25:00;67.22;;;31.75;;
55597;SDS011;41463;53.186;5.552;2022-12-18T01:27:28;79.57;;;34.53;;
55597;SDS011;41463;53.186;5.552;2022-12-18T01:29:54;70.40;;;31.15;;
55597;SDS011;41463;53.186;5.552;2022-12-18T01:32:20;76.53;;;34.17;;
55597;SDS011;41463;53.186;5.552;2022-12-18T01:34:47;75.07;;;34.92;;
55597;SDS011;41463;53.186;5.552;2022-12-18T01:37:12;83.07;;;35.15;;
55597;SDS011;41463;53.186;5.552;2022-12-18T01:39:38;77.95;;;35.65;;
55597;SDS011;41463;53.186;5.552;2022-12-18T01:42:09;72.18;;;30.88;;
55597;SDS011;41463;53.186;5.552;2022-12-18T01:44:58;76.10;;;32.53;;
55597;SDS011;41463;53.186;5.552;2022-12-18T01:50:12;79.85;;;34.47;;
55597;SDS011;41463;53.186;5.552;2022-12-18T01:52:53;74.97;;;32.88;;
55597;SDS011;41463;53.186;5.552;2022-12-18T01:55:35;74.82;;;33.13;;
55597;SDS011;41463;53.186;5.552;2022-12-18T01:58:06;76.03;;;32.35;;
55597;SDS011;41463;53.186;5.552;2022-12-18T02:00:32;68.63;;;32.33;;
55597;SDS011;41463;53.186;5.552;2022-12-18T02:03:00;68.60;;;30.98;;
55597;SDS011;41463;53.186;5.552;2022-12-18T02:17:17;73.57;;;31.08;;
55597;SDS011;41463;53.186;5.552;2022-12-18T02:20:06;66.40;;;30.17;;
55597;SDS011;41463;53.186;5.552;2022-12-18T02:22:37;69.70;;;28.92;;
55597;SDS011;41463;53.186;5.552;2022-12-18T02:28:22;61.90;;;28.40;;
55597;SDS011;41463;53.186;5.552;2022-12-18T02:30:51;57.80;;;27.65;;
55597;SDS011;41463;53.186;5.552;2022-12-18T02:33:18;67.13;;;29.35;;
55597;SDS011;41463;53.186;5.552;2022-12-18T02:35:46;56.97;;;27.42;;
55597;SDS011;41463;53.186;5.552;2022-12-18T02:38:16;59.00;;;27.75;;
55597;SDS011;41463;53.186;5.552;2022-12-18T02:40:42;66.32;;;29.50;;
55597;SDS011;41463;53.186;5.552;2022-12-18T02:43:10;64.75;;;29.23;;
55597;SDS011;41463;53.186;5.552;2022-12-18T02:45:50;59.03;;;27.60;;
55597;SDS011;41463;53.186;5.552;2022-12-18T02:48:21;61.85;;;29.73;;
55597;SDS011;41463;53.186;5.552;2022-12-18T02:51:08;57.78;;;28.02;;
55597;SDS011;41463;53.186;5.552;2022-12-18T02:53:50;61.60;;;27.85;;
55597;SDS011;41463;53.186;5.552;2022-12-18T02:56:21;62.33;;;28.42;;
55597;SDS011;41463;53.186;5.552;2022-12-18T03:01:38;64.20;;;28.95;;
55597;SDS011;41463;53.186;5.552;2022-12-18T03:06:53;62.15;;;27.70;;
55597;SDS011;41463;53.186;5.552;2022-12-18T03:09:28;60.55;;;27.80;;
55597;SDS011;41463;53.186;5.552;2022-12-18T03:12:44;60.58;;;27.77;;
55597;SDS011;41463;53.186;5.552;2022-12-18T03:15:03;64.75;;;28.38;;
55597;SDS011;41463;53.186;5.552;2022-12-18T03:17:34;61.60;;;26.90;;
55597;SDS011;41463;53.186;5.552;2022-12-18T03:20:06;62.47;;;27.92;;
55597;SDS011;41463;53.186;5.552;2022-12-18T03:22:37;62.20;;;28.05;;
55597;SDS011;41463;53.186;5.552;2022-12-18T03:25:05;59.60;;;27.83;;
55597;SDS011;41463;53.186;5.552;2022-12-18T03:27:36;60.88;;;28.08;;
55597;SDS011;41463;53.186;5.552;2022-12-18T03:30:09;61.38;;;29.50;;
55597;SDS011;41463;53.186;5.552;2022-12-18T03:32:48;58.15;;;27.92;;
55597;SDS011;41463;53.186;5.552;2022-12-18T03:35:21;56.00;;;26.77;;
55597;SDS011;41463;53.186;5.552;2022-12-18T03:37:51;61.38;;;27.75;;
55597;SDS011;41463;53.186;5.552;2022-12-18T03:40:17;56.17;;;26.17;;
55597;SDS011;41463;53.186;5.552;2022-12-18T03:42:49;61.90;;;26.30;;
55597;SDS011;41463;53.186;5.552;2022-12-18T03:45:23;62.75;;;27.58;;
55597;SDS011;41463;53.186;5.552;2022-12-18T03:50:25;55.60;;;27.40;;
55597;SDS011;41463;53.186;5.552;2022-12-18T03:55:46;66.60;;;28.83;;
55597;SDS011;41463;53.186;5.552;2022-12-18T03:58:15;65.43;;;27.52;;
55597;SDS011;41463;53.186;5.552;2022-12-18T04:00:44;57.20;;;26.52;;
55597;SDS011;41463;53.186;5.552;2022-12-18T04:03:12;65.68;;;29.17;;
55597;SDS011;41463;53.186;5.552;2022-12-18T04:05:40;63.30;;;27.08;;
55597;SDS011;41463;53.186;5.552;2022-12-18T04:08:10;62.55;;;28.45;;
55597;SDS011;41463;53.186;5.552;2022-12-18T04:10:36;67.28;;;29.83;;
55597;SDS011;41463;53.186;5.552;2022-12-18T04:13:02;60.50;;;27.67;;
55597;SDS011;41463;53.186;5.552;2022-12-18T04:15:31;66.68;;;28.17;;
55597;SDS011;41463;53.186;5.552;2022-12-18T04:17:59;62.78;;;27.23;;
55597;SDS011;41463;53.186;5.552;2022-12-18T04:20:27;65.20;;;28.55;;
55597;SDS011;41463;53.186;5.552;2022-12-18T04:22:56;63.13;;;28.92;;
55597;SDS011;41463;53.186;5.552;2022-12-18T04:25:22;67.65;;;28.35;;
55597;SDS011;41463;53.186;5.552;2022-12-18T04:27:48;70.32;;;29.00;;
55597;SDS011;41463;53.186;5.552;2022-12-18T04:30:14;70.20;;;29.38;;
55597;SDS011;41463;53.186;5.552;2022-12-18T04:32:48;61.97;;;26.38;;
55597;SDS011;41463;53.186;5.552;2022-12-18T04:35:14;60.30;;;27.45;;
55597;SDS011;41463;53.186;5.552;2022-12-18T04:37:40;64.78;;;28.02;;
55597;SDS011;41463;53.186;5.552;2022-12-18T04:40:06;66.38;;;27.38;;
55597;SDS011;41463;53.186;5.552;2022-12-18T04:42:32;71.65;;;27.95;;
55597;SDS011;41463;53.186;5.552;2022-12-18T04:45:01;66.18;;;27.67;;
55597;SDS011;41463;53.186;5.552;2022-12-18T04:47:30;61.38;;;26.73;;
55597;SDS011;41463;53.186;5.552;2022-12-18T04:49:58;67.28;;;27.33;;
55597;SDS011;41463;53.186;5.552;2022-12-18T04:52:24;69.10;;;28.40;;
55597;SDS011;41463;53.186;5.552;2022-12-18T04:54:50;72.32;;;29.00;;
55597;SDS011;41463;53.186;5.552;2022-12-18T04:57:16;73.68;;;29.77;;
55597;SDS011;41463;53.186;5.552;2022-12-18T04:59:43;65.63;;;28.65;;
55597;SDS011;41463;53.186;5.552;2022-12-18T05:02:11;65.32;;;27.90;;
55597;SDS011;41463;53.186;5.552;2022-12-18T05:04:37;64.47;;;27.45;;
55597;SDS011;41463;53.186;5.552;2022-12-18T05:07:03;63.05;;;28.45;;
55597;SDS011;41463;53.186;5.552;2022-12-18T05:09:29;67.80;;;28.00;;
55597;SDS011;41463;53.186;5.552;2022-12-18T05:11:58;62.97;;;26.95;;
55597;SDS011;41463;53.186;5.552;2022-12-18T05:14:24;64.38;;;29.23;;
55597;SDS011;41463;53.186;5.552;2022-12-18T05:16:49;62.83;;;27.67;;
55597;SDS011;41463;53.186;5.552;2022-12-18T05:19:15;63.83;;;26.15;;
55597;SDS011;41463;53.186;5.552;2022-12-18T05:21:41;58.40;;;26.83;;
55597;SDS011;41463;53.186;5.552;2022-12-18T05:24:06;65.97;;;28.55;;
55597;SDS011;41463;53.186;5.552;2022-12-18T05:26:32;71.47;;;29.55;;
55597;SDS011;41463;53.186;5.552;2022-12-18T05:28:58;62.33;;;28.77;;
55597;SDS011;41463;53.186;5.552;2022-12-18T05:31:24;73.60;;;28.30;;
55597;SDS011;41463;53.186;5.552;2022-12-18T05:33:50;61.45;;;26.83;;
55597;SDS011;41463;53.186;5.552;2022-12-18T05:36:15;69.18;;;28.35;;
55597;SDS011;41463;53.186;5.552;2022-12-18T05:38:44;69.00;;;28.30;;
55597;SDS011;41463;53.186;5.552;2022-12-18T05:41:10;64.80;;;28.25;;
55597;SDS011;41463;53.186;5.552;2022-12-18T05:43:38;61.00;;;27.13;;
55597;SDS011;41463;53.186;5.552;2022-12-18T05:46:09;60.80;;;27.27;;
55597;SDS011;41463;53.186;5.552;2022-12-18T05:48:38;57.25;;;26.73;;
55597;SDS011;41463;53.186;5.552;2022-12-18T05:51:05;62.08;;;28.33;;
55597;SDS011;41463;53.186;5.552;2022-12-18T05:53:36;58.13;;;25.58;;
55597;SDS011;41463;53.186;5.552;2022-12-18T05:56:07;62.72;;;25.48;;
55597;SDS011;41463;53.186;5.552;2022-12-18T05:58:34;60.30;;;26.27;;
55597;SDS011;41463;53.186;5.552;2022-12-18T06:01:07;59.05;;;25.75;;
55597;SDS011;41463;53.186;5.552;2022-12-18T06:03:37;62.45;;;26.10;;
55597;SDS011;41463;53.186;5.552;2022-12-18T06:06:03;55.90;;;26.02;;
55597;SDS011;41463;53.186;5.552;2022-12-18T06:08:29;57.10;;;27.42;;
55597;SDS011;41463;53.186;5.552;2022-12-18T06:10:55;65.18;;;27.35;;
55597;SDS011;41463;53.186;5.552;2022-12-18T06:13:24;58.08;;;26.40;;
55597;SDS011;41463;53.186;5.552;2022-12-18T06:15:53;57.67;;;23.65;;
55597;SDS011;41463;53.186;5.552;2022-12-18T06:18:21;56.30;;;26.02;;
55597;SDS011;41463;53.186;5.552;2022-12-18T06:20:54;58.47;;;26.83;;
55597;SDS011;41463;53.186;5.552;2022-12-18T06:25:46;52.90;;;24.13;;
55597;SDS011;41463;53.186;5.552;2022-12-18T06:28:15;60.95;;;26.35;;
55597;SDS011;41463;53.186;5.552;2022-12-18T06:30:44;62.35;;;25.35;;
55597;SDS011;41463;53.186;5.552;2022-12-18T06:33:11;57.92;;;25.65;;
55597;SDS011;41463;53.186;5.552;2022-12-18T06:35:36;66.22;;;27.45;;
55597;SDS011;41463;53.186;5.552;2022-12-18T06:38:05;56.58;;;24.02;;
55597;SDS011;41463;53.186;5.552;2022-12-18T06:40:33;53.13;;;23.92;;
55597;SDS011;41463;53.186;5.552;2022-12-18T06:43:01;52.67;;;24.85;;
55597;SDS011;41463;53.186;5.552;2022-12-18T06:45:28;52.95;;;24.00;;
55597;SDS011;41463;53.186;5.552;2022-12-18T06:47:57;53.78;;;24.83;;
55597;SDS011;41463;53.186;5.552;2022-12-18T06:50:26;60.83;;;24.50;;
55597;SDS011;41463;53.186;5.552;2022-12-18T06:52:52;49.70;;;22.98;;
55597;SDS011;41463;53.186;5.552;2022-12-18T06:55:18;58.35;;;24.92;;
55597;SDS011;41463;53.186;5.552;2022-12-18T06:57:43;50.13;;;24.95;;
55597;SDS011;41463;53.186;5.552;2022-12-18T07:00:10;50.15;;;23.35;;
55597;SDS011;41463;53.186;5.552;2022-12-18T07:03:03;45.80;;;22.13;;
55597;SDS011;41463;53.186;5.552;2022-12-18T07:05:31;56.83;;;23.98;;
55597;SDS011;41463;53.186;5.552;2022-12-18T07:08:06;56.67;;;24.80;;
55597;SDS011;41463;53.186;5.552;2022-12-18T07:10:40;51.70;;;24.23;;
55597;SDS011;41463;53.186;5.552;2022-12-18T07:13:07;49.97;;;23.80;;
55597;SDS011;41463;53.186;5.552;2022-12-18T07:15:33;49.78;;;22.80;;
55597;SDS011;41463;53.186;5.552;2022-12-18T07:17:58;51.65;;;22.95;;
55597;SDS011;41463;53.186;5.552;2022-12-18T07:20:24;48.25;;;23.88;;
55597;SDS011;41463;53.186;5.552;2022-12-18T07:22:50;53.67;;;22.80;;
55597;SDS011;41463;53.186;5.552;2022-12-18T07:25:18;52.80;;;23.65;;
55597;SDS011;41463;53.186;5.552;2022-12-18T07:27:44;50.03;;;23.77;;
55597;SDS011;41463;53.186;5.552;2022-12-18T07:30:10;57.38;;;24.92;;
55597;SDS011;41463;53.186;5.552;2022-12-18T07:32:36;52.08;;;24.10;;
55597;SDS011;41463;53.186;5.552;2022-12-18T07:35:02;50.38;;;22.75;;
55597;SDS011;41463;53.186;5.552;2022-12-18T07:37:28;53.47;;;25.02;;
55597;SDS011;41463;53.186;5.552;2022-12-18T07:39:53;53.33;;;22.63;;
55597;SDS011;41463;53.186;5.552;2022-12-18T07:42:22;48.53;;;22.45;;
55597;SDS011;41463;53.186;5.552;2022-12-18T07:45:00;52.03;;;24.02;;
55597;SDS011;41463;53.186;5.552;2022-12-18T07:47:28;46.47;;;22.55;;
55597;SDS011;41463;53.186;5.552;2022-12-18T07:49:54;50.05;;;23.85;;
55597;SDS011;41463;53.186;5.552;2022-12-18T07:52:20;51.78;;;22.98;;
55597;SDS011;41463;53.186;5.552;2022-12-18T07:54:46;44.85;;;21.67;;
55597;SDS011;41463;53.186;5.552;2022-12-18T07:57:15;43.67;;;22.20;;
55597;SDS011;41463;53.186;5.552;2022-12-18T07:59:41;45.92;;;22.30;;
55597;SDS011;41463;53.186;5.552;2022-12-18T08:02:07;50.05;;;21.92;;
55597;SDS011;41463;53.186;5.552;2022-12-18T08:04:33;41.88;;;21.10;;
55597;SDS011;41463;53.186;5.552;2022-12-18T08:07:01;40.95;;;20.88;;
55597;SDS011;41463;53.186;5.552;2022-12-18T08:09:30;40.33;;;19.92;;
55597;SDS011;41463;53.186;5.552;2022-12-18T08:11:56;43.22;;;21.45;;
55597;SDS011;41463;53.186;5.552;2022-12-18T08:14:22;45.70;;;21.75;;
55597;SDS011;41463;53.186;5.552;2022-12-18T08:16:47;42.88;;;21.15;;
55597;SDS011;41463;53.186;5.552;2022-12-18T08:19:13;44.70;;;20.15;;
55597;SDS011;41463;53.186;5.552;2022-12-18T08:21:42;46.67;;;22.25;;
55597;SDS011;41463;53.186;5.552;2022-12-18T08:24:11;41.97;;;20.65;;
55597;SDS011;41463;53.186;5.552;2022-12-18T08:26:36;42.63;;;19.35;;
55597;SDS011;41463;53.186;5.552;2022-12-18T08:29:02;41.40;;;21.23;;
55597;SDS011;41463;53.186;5.552;2022-12-18T08:31:29;40.22;;;20.58;;
55597;SDS011;41463;53.186;5.552;2022-12-18T08:33:55;39.63;;;19.42;;
55597;SDS011;41463;53.186;5.552;2022-12-18T08:36:22;39.67;;;20.08;;
55597;SDS011;41463;53.186;5.552;2022-12-18T08:38:51;41.22;;;19.60;;
55597;SDS011;41463;53.186;5.552;2022-12-18T08:41:17;36.65;;;19.02;;
55597;SDS011;41463;53.186;5.552;2022-12-18T08:43:43;38.13;;;20.15;;
55597;SDS011;41463;53.186;5.552;2022-12-18T08:46:31;37.22;;;20.10;;
55597;SDS011;41463;53.186;5.552;2022-12-18T08:49:03;39.25;;;19.55;;
55597;SDS011;41463;53.186;5.552;2022-12-18T08:51:32;39.50;;;18.08;;
55597;SDS011;41463;53.186;5.552;2022-12-18T08:54:02;38.45;;;18.67;;
55597;SDS011;41463;53.186;5.552;2022-12-18T08:56:28;35.90;;;18.52;;
55597;SDS011;41463;53.186;5.552;2022-12-18T08:58:55;37.10;;;18.73;;
55597;SDS011;41463;53.186;5.552;2022-12-18T09:01:21;39.20;;;19.27;;
55597;SDS011;41463;53.186;5.552;2022-12-18T09:03:50;34.58;;;18.48;;
55597;SDS011;41463;53.186;5.552;2022-12-18T09:06:17;34.88;;;19.17;;
55597;SDS011;41463;53.186;5.552;2022-12-18T09:08:44;35.17;;;18.33;;
55597;SDS011;41463;53.186;5.552;2022-12-18T09:11:14;33.63;;;19.00;;
55597;SDS011;41463;53.186;5.552;2022-12-18T09:13:45;42.58;;;19.75;;
55597;SDS011;41463;53.186;5.552;2022-12-18T09:16:14;33.67;;;18.63;;
55597;SDS011;41463;53.186;5.552;2022-12-18T09:18:40;36.67;;;18.70;;
55597;SDS011;41463;53.186;5.552;2022-12-18T09:21:19;36.00;;;19.42;;
55597;SDS011;41463;53.186;5.552;2022-12-18T09:23:52;32.65;;;18.25;;
55597;SDS011;41463;53.186;5.552;2022-12-18T09:26:19;36.22;;;18.20;;
55597;SDS011;41463;53.186;5.552;2022-12-18T09:28:46;32.53;;;18.40;;
55597;SDS011;41463;53.186;5.552;2022-12-18T09:31:12;35.40;;;18.33;;
55597;SDS011;41463;53.186;5.552;2022-12-18T09:33:38;34.03;;;19.08;;
55597;SDS011;41463;53.186;5.552;2022-12-18T09:36:08;33.72;;;18.50;;
55597;SDS011;41463;53.186;5.552;2022-12-18T09:38:35;35.15;;;18.17;;
55597;SDS011;41463;53.186;5.552;2022-12-18T09:41:04;36.90;;;19.17;;
55597;SDS011;41463;53.186;5.552;2022-12-18T09:43:56;35.47;;;20.17;;
55597;SDS011;41463;53.186;5.552;2022-12-18T09:46:27;31.40;;;18.00;;
55597;SDS011;41463;53.186;5.552;2022-12-18T09:49:03;33.47;;;17.42;;
55597;SDS011;41463;53.186;5.552;2022-12-18T09:54:06;30.67;;;16.55;;
55597;SDS011;41463;53.186;5.552;2022-12-18T09:56:38;30.58;;;16.80;;
55597;SDS011;41463;53.186;5.552;2022-12-18T09:59:08;26.10;;;15.00;;
55597;SDS011;41463;53.186;5.552;2022-12-18T10:02:20;29.25;;;15.35;;
55597;SDS011;41463;53.186;5.552;2022-12-18T10:05:00;26.33;;;15.68;;
55597;SDS011;41463;53.186;5.552;2022-12-18T10:13:37;27.10;;;15.77;;
55597;SDS011;41463;53.186;5.552;2022-12-18T10:16:42;30.20;;;16.02;;
55597;SDS011;41463;53.186;5.552;2022-12-18T10:19:33;26.55;;;15.27;;
55597;SDS011;41463;53.186;5.552;2022-12-18T10:24:38;25.42;;;14.60;;
55597;SDS011;41463;53.186;5.552;2022-12-18T10:27:26;26.23;;;14.00;;
55597;SDS011;41463;53.186;5.552;2022-12-18T10:29:53;26.50;;;14.50;;
55597;SDS011;41463;53.186;5.552;2022-12-18T10:32:21;24.90;;;13.85;;
55597;SDS011;41463;53.186;5.552;2022-12-18T10:34:50;23.88;;;12.38;;
55597;SDS011;41463;53.186;5.552;2022-12-18T10:37:18;27.15;;;12.95;;
55597;SDS011;41463;53.186;5.552;2022-12-18T10:40:04;26.63;;;14.18;;
55597;SDS011;41463;53.186;5.552;2022-12-18T10:42:39;23.63;;;12.70;;
55597;SDS011;41463;53.186;5.552;2022-12-18T10:47:49;26.27;;;14.07;;
55597;SDS011;41463;53.186;5.552;2022-12-18T10:50:34;29.48;;;16.60;;
55597;SDS011;41463;53.186;5.552;2022-12-18T10:53:03;23.27;;;13.82;;
55597;SDS011;41463;53.186;5.552;2022-12-18T10:55:31;23.08;;;14.55;;
55597;SDS011;41463;53.186;5.552;2022-12-18T10:58:13;27.20;;;16.40;;
55597;SDS011;41463;53.186;5.552;2022-12-18T11:00:45;23.08;;;13.25;;
55597;SDS011;41463;53.186;5.552;2022-12-18T11:03:44;19.10;;;11.57;;
55597;SDS011;41463;53.186;5.552;2022-12-18T11:06:20;20.05;;;11.15;;
55597;SDS011;41463;53.186;5.552;2022-12-18T11:11:57;19.63;;;11.35;;
55597;SDS011;41463;53.186;5.552;2022-12-18T11:14:26;18.40;;;10.68;;
55597;SDS011;41463;53.186;5.552;2022-12-18T11:17:00;18.88;;;11.38;;
55597;SDS011;41463;53.186;5.552;2022-12-18T11:22:03;16.23;;;10.90;;
55597;SDS011;41463;53.186;5.552;2022-12-18T11:24:49;18.08;;;11.18;;
55597;SDS011;41463;53.186;5.552;2022-12-18T11:27:30;16.42;;;10.43;;
55597;SDS011;41463;53.186;5.552;2022-12-18T11:30:07;17.17;;;10.35;;
55597;SDS011;41463;53.186;5.552;2022-12-18T11:33:15;17.52;;;10.02;;
55597;SDS011;41463;53.186;5.552;2022-12-18T11:38:32;17.90;;;10.52;;
55597;SDS011;41463;53.186;5.552;2022-12-18T11:41:05;18.73;;;10.73;;
55597;SDS011;41463;53.186;5.552;2022-12-18T11:43:40;16.65;;;9.73;;
55597;SDS011;41463;53.186;5.552;2022-12-18T11:46:32;16.98;;;10.40;;
55597;SDS011;41463;53.186;5.552;2022-12-18T11:49:12;16.45;;;10.15;;
55597;SDS011;41463;53.186;5.552;2022-12-18T11:51:55;21.30;;;11.43;;
55597;SDS011;41463;53.186;5.552;2022-12-18T11:54:34;21.42;;;11.70;;
55597;SDS011;41463;53.186;5.552;2022-12-18T11:59:36;16.73;;;10.10;;
55597;SDS011;41463;53.186;5.552;2022-12-18T12:02:20;16.08;;;10.43;;
55597;SDS011;41463;53.186;5.552;2022-12-18T12:10:16;14.02;;;9.05;;
55597;SDS011;41463;53.186;5.552;2022-12-18T12:13:02;13.15;;;9.48;;
55597;SDS011;41463;53.186;5.552;2022-12-18T12:16:09;14.68;;;9.13;;
55597;SDS011;41463;53.186;5.552;2022-12-18T12:24:30;13.98;;;9.45;;
55597;SDS011;41463;53.186;5.552;2022-12-18T12:40:42;14.27;;;9.63;;
55597;SDS011;41463;53.186;5.552;2022-12-18T12:43:35;14.90;;;8.40;;
55597;SDS011;41463;53.186;5.552;2022-12-18T12:46:11;11.18;;;8.18;;
55597;SDS011;41463;53.186;5.552;2022-12-18T12:51:36;14.90;;;8.90;;
55597;SDS011;41463;53.186;5.552;2022-12-18T12:54:08;13.07;;;8.43;;
55597;SDS011;41463;53.186;5.552;2022-12-18T13:09:30;13.23;;;8.88;;
55597;SDS011;41463;53.186;5.552;2022-12-18T13:12:01;14.02;;;8.95;;
55597;SDS011;41463;53.186;5.552;2022-12-18T13:14:48;10.98;;;7.68;;
55597;SDS011;41463;53.186;5.552;2022-12-18T13:19:49;13.27;;;8.15;;
55597;SDS011;41463;53.186;5.552;2022-12-18T13:22:23;13.23;;;8.52;;
55597;SDS011;41463;53.186;5.552;2022-12-18T13:28:09;11.80;;;7.45;;
55597;SDS011;41463;53.186;5.552;2022-12-18T13:33:42;11.50;;;7.78;;
55597;SDS011;41463;53.186;5.552;2022-12-18T13:36:16;12.63;;;8.20;;
55597;SDS011;41463;53.186;5.552;2022-12-18T13:41:35;11.35;;;7.80;;
55597;SDS011;41463;53.186;5.552;2022-12-18T13:46:46;9.93;;;7.18;;
55597;SDS011;41463;53.186;5.552;2022-12-18T13:51:39;13.32;;;7.75;;
55597;SDS011;41463;53.186;5.552;2022-12-18T13:57:02;12.32;;;8.30;;
55597;SDS011;41463;53.186;5.552;2022-12-18T13:59:38;12.63;;;8.18;;
55597;SDS011;41463;53.186;5.552;2022-12-18T14:02:19;12.40;;;8.77;;
55597;SDS011;41463;53.186;5.552;2022-12-18T14:04:48;13.13;;;8.05;;
55597;SDS011;41463;53.186;5.552;2022-12-18T14:07:15;12.75;;;8.13;;
55597;SDS011;41463;53.186;5.552;2022-12-18T14:09:53;11.32;;;8.23;;
55597;SDS011;41463;53.186;5.552;2022-12-18T14:12:23;14.23;;;8.75;;
55597;SDS011;41463;53.186;5.552;2022-12-18T14:15:15;14.73;;;8.10;;
55597;SDS011;41463;53.186;5.552;2022-12-18T14:17:46;13.73;;;8.57;;
55597;SDS011;41463;53.186;5.552;2022-12-18T14:20:15;12.43;;;8.10;;
55597;SDS011;41463;53.186;5.552;2022-12-18T14:22:46;13.02;;;8.85;;
55597;SDS011;41463;53.186;5.552;2022-12-18T14:27:50;11.45;;;7.47;;
55597;SDS011;41463;53.186;5.552;2022-12-18T14:30:37;13.20;;;8.48;;
55597;SDS011;41463;53.186;5.552;2022-12-18T14:35:52;12.27;;;7.95;;
55597;SDS011;41463;53.186;5.552;2022-12-18T14:40:53;14.05;;;8.35;;
55597;SDS011;41463;53.186;5.552;2022-12-18T14:43:20;11.90;;;8.02;;
55597;SDS011;41463;53.186;5.552;2022-12-18T14:45:46;12.18;;;8.52;;
55597;SDS011;41463;53.186;5.552;2022-12-18T14:48:17;11.68;;;8.48;;
55597;SDS011;41463;53.186;5.552;2022-12-18T14:53:51;13.20;;;8.25;;
55597;SDS011;41463;53.186;5.552;2022-12-18T14:59:06;11.45;;;7.85;;
55597;SDS011;41463;53.186;5.552;2022-12-18T15:09:37;13.80;;;8.40;;
55597;SDS011;41463;53.186;5.552;2022-12-18T15:12:04;13.20;;;8.60;;
55597;SDS011;41463;53.186;5.552;2022-12-18T15:17:06;18.75;;;9.95;;
55597;SDS011;41463;53.186;5.552;2022-12-18T15:19:44;14.68;;;8.68;;
55597;SDS011;41463;53.186;5.552;2022-12-18T15:22:25;14.80;;;9.07;;
55597;SDS011;41463;53.186;5.552;2022-12-18T15:24:55;16.58;;;9.55;;
55597;SDS011;41463;53.186;5.552;2022-12-18T15:27:30;13.77;;;9.20;;
55597;SDS011;41463;53.186;5.552;2022-12-18T15:32:37;13.68;;;9.25;;
55597;SDS011;41463;53.186;5.552;2022-12-18T15:37:48;11.02;;;7.72;;
55597;SDS011;41463;53.186;5.552;2022-12-18T15:42:50;13.07;;;7.60;;
55597;SDS011;41463;53.186;5.552;2022-12-18T15:45:37;11.07;;;7.30;;
55597;SDS011;41463;53.186;5.552;2022-12-18T15:48:18;11.73;;;7.47;;
55597;SDS011;41463;53.186;5.552;2022-12-18T15:50:50;13.55;;;8.02;;
55597;SDS011;41463;53.186;5.552;2022-12-18T15:53:17;12.05;;;7.07;;
55597;SDS011;41463;53.186;5.552;2022-12-18T15:55:46;18.35;;;10.05;;
55597;SDS011;41463;53.186;5.552;2022-12-18T15:58:31;22.55;;;11.18;;
55597;SDS011;41463;53.186;5.552;2022-12-18T16:01:10;14.68;;;8.48;;
55597;SDS011;41463;53.186;5.552;2022-12-18T16:03:40;15.25;;;8.57;;
55597;SDS011;41463;53.186;5.552;2022-12-18T16:06:05;14.10;;;8.52;;
55597;SDS011;41463;53.186;5.552;2022-12-18T16:08:37;10.73;;;7.75;;
55597;SDS011;41463;53.186;5.552;2022-12-18T16:11:08;12.60;;;8.23;;
55597;SDS011;41463;53.186;5.552;2022-12-18T16:16:54;12.85;;;8.63;;
55597;SDS011;41463;53.186;5.552;2022-12-18T16:19:24;14.40;;;8.27;;
55597;SDS011;41463;53.186;5.552;2022-12-18T16:21:51;11.85;;;7.90;;
55597;SDS011;41463;53.186;5.552;2022-12-18T16:24:21;14.82;;;9.55;;
55597;SDS011;41463;53.186;5.552;2022-12-18T16:26:48;13.32;;;9.02;;
55597;SDS011;41463;53.186;5.552;2022-12-18T16:29:16;12.85;;;8.10;;
55597;SDS011;41463;53.186;5.552;2022-12-18T16:31:46;16.40;;;9.48;;
55597;SDS011;41463;53.186;5.552;2022-12-18T16:34:13;17.33;;;12.27;;
55597;SDS011;41463;53.186;5.552;2022-12-18T16:36:50;13.93;;;9.02;;
55597;SDS011;41463;53.186;5.552;2022-12-18T16:39:19;18.98;;;9.70;;
55597;SDS011;41463;53.186;5.552;2022-12-18T16:41:45;13.77;;;9.32;;
55597;SDS011;41463;53.186;5.552;2022-12-18T16:44:11;15.38;;;9.32;;
55597;SDS011;41463;53.186;5.552;2022-12-18T16:46:37;14.65;;;9.60;;
55597;SDS011;41463;53.186;5.552;2022-12-18T16:49:04;16.60;;;8.95;;
55597;SDS011;41463;53.186;5.552;2022-12-18T16:51:30;15.10;;;9.75;;
55597;SDS011;41463;53.186;5.552;2022-12-18T16:53:56;13.60;;;9.07;;
55597;SDS011;41463;53.186;5.552;2022-12-18T16:56:25;14.57;;;10.68;;
55597;SDS011;41463;53.186;5.552;2022-12-18T16:58:51;14.45;;;10.10;;
55597;SDS011;41463;53.186;5.552;2022-12-18T17:01:18;13.13;;;8.82;;
55597;SDS011;41463;53.186;5.552;2022-12-18T17:03:52;16.00;;;8.88;;
55597;SDS011;41463;53.186;5.552;2022-12-18T17:06:23;16.80;;;8.60;;
55597;SDS011;41463;53.186;5.552;2022-12-18T17:08:59;12.65;;;8.90;;
55597;SDS011;41463;53.186;5.552;2022-12-18T17:11:31;13.85;;;9.07;;
55597;SDS011;41463;53.186;5.552;2022-12-18T17:13:58;12.32;;;8.77;;
55597;SDS011;41463;53.186;5.552;2022-12-18T17:16:40;14.23;;;9.27;;